sensor_id;sensor_type;location;lat;lon;timestamp;P1;durP1;ratioP1;P2;durP2;ratioP2
34497;SDS011;20744;50.938;7.286;2023-03-02T00:01:27;11.82;;;6.00;;
34497;SDS011;20744;50.938;7.286;2023-03-02T00:03:56;10.75;;;6.18;;
34497;SDS011;20744;50.938;7.286;2023-03-02T00:06:24;12.18;;;6.15;;
34497;SDS011;20744;50.938;7.286;2023-03-02T00:08:51;12.40;;;5.93;;
34497;SDS011;20744;50.938;7.286;2023-03-02T00:11:19;12.85;;;6.10;;
34497;SDS011;20744;50.938;7.286;2023-03-02T00:13:46;13.20;;;6.05;;
34497;SDS011;20744;50.938;7.286;2023-03-02T00:16:15;11.32;;;5.82;;
34497;SDS011;20744;50.938;7.286;2023-03-02T00:18:42;11.75;;;5.88;;
34497;SDS011;20744;50.938;7.286;2023-03-02T00:21:09;14.40;;;6.43;;
34497;SDS011;20744;50.938;7.286;2023-03-02T00:23:36;9.50;;;5.63;;
34497;SDS011;20744;50.938;7.286;2023-03-02T00:26:04;8.73;;;4.95;;
34497;SDS011;20744;50.938;7.286;2023-03-02T00:28:31;9.32;;;5.40;;
34497;SDS011;20744;50.938;7.286;2023-03-02T00:30:59;13.02;;;5.78;;
34497;SDS011;20744;50.938;7.286;2023-03-02T00:33:27;10.63;;;5.07;;
34497;SDS011;20744;50.938;7.286;2023-03-02T00:35:55;8.95;;;5.28;;
34497;SDS011;20744;50.938;7.286;2023-03-02T00:38:22;11.27;;;5.65;;
34497;SDS011;20744;50.938;7.286;2023-03-02T00:40:49;11.38;;;5.47;;
34497;SDS011;20744;50.938;7.286;2023-03-02T00:43:16;9.13;;;5.07;;
34497;SDS011;20744;50.938;7.286;2023-03-02T00:45:46;10.05;;;5.40;;
34497;SDS011;20744;50.938;7.286;2023-03-02T00:48:13;11.57;;;5.28;;
34497;SDS011;20744;50.938;7.286;2023-03-02T00:50:41;12.77;;;5.93;;
34497;SDS011;20744;50.938;7.286;2023-03-02T00:53:09;9.68;;;5.57;;
34497;SDS011;20744;50.938;7.286;2023-03-02T00:55:36;10.93;;;5.15;;
34497;SDS011;20744;50.938;7.286;2023-03-02T00:58:04;11.38;;;5.28;;
34497;SDS011;20744;50.938;7.286;2023-03-02T01:00:31;12.20;;;5.85;;
34497;SDS011;20744;50.938;7.286;2023-03-02T01:02:59;11.75;;;5.57;;
34497;SDS011;20744;50.938;7.286;2023-03-02T01:05:26;11.43;;;5.57;;
34497;SDS011;20744;50.938;7.286;2023-03-02T01:07:55;11.20;;;5.85;;
34497;SDS011;20744;50.938;7.286;2023-03-02T01:10:22;12.50;;;6.55;;
34497;SDS011;20744;50.938;7.286;2023-03-02T01:12:49;16.10;;;7.45;;
34497;SDS011;20744;50.938;7.286;2023-03-02T01:15:17;14.85;;;7.47;;
34497;SDS011;20744;50.938;7.286;2023-03-02T01:17:44;14.90;;;7.68;;
34497;SDS011;20744;50.938;7.286;2023-03-02T01:20:11;11.40;;;6.80;;
34497;SDS011;20744;50.938;7.286;2023-03-02T01:22:39;12.10;;;6.90;;
34497;SDS011;20744;50.938;7.286;2023-03-02T01:25:09;13.80;;;7.00;;
34497;SDS011;20744;50.938;7.286;2023-03-02T01:27:37;13.27;;;6.97;;
34497;SDS011;20744;50.938;7.286;2023-03-02T01:30:04;14.65;;;7.68;;
34497;SDS011;20744;50.938;7.286;2023-03-02T01:32:32;13.68;;;7.60;;
34497;SDS011;20744;50.938;7.286;2023-03-02T01:34:59;14.35;;;8.00;;
34497;SDS011;20744;50.938;7.286;2023-03-02T01:37:26;12.95;;;7.18;;
34497;SDS011;20744;50.938;7.286;2023-03-02T01:39:54;13.15;;;7.15;;
34497;SDS011;20744;50.938;7.286;2023-03-02T01:42:22;13.60;;;6.50;;
34497;SDS011;20744;50.938;7.286;2023-03-02T01:44:50;12.45;;;6.85;;
34497;SDS011;20744;50.938;7.286;2023-03-02T01:47:22;12.13;;;6.70;;
34497;SDS011;20744;50.938;7.286;2023-03-02T01:49:50;12.40;;;7.05;;
34497;SDS011;20744;50.938;7.286;2023-03-02T01:52:19;13.65;;;7.03;;
34497;SDS011;20744;50.938;7.286;2023-03-02T01:54:48;12.30;;;7.25;;
34497;SDS011;20744;50.938;7.286;2023-03-02T01:57:18;11.35;;;6.57;;
34497;SDS011;20744;50.938;7.286;2023-03-02T01:59:47;13.65;;;7.25;;
34497;SDS011;20744;50.938;7.286;2023-03-02T02:02:16;13.63;;;6.80;;
34497;SDS011;20744;50.938;7.286;2023-03-02T02:04:43;12.75;;;7.00;;
34497;SDS011;20744;50.938;7.286;2023-03-02T02:07:11;14.85;;;7.35;;
34497;SDS011;20744;50.938;7.286;2023-03-02T02:09:39;16.42;;;7.30;;
34497;SDS011;20744;50.938;7.286;2023-03-02T02:12:11;12.57;;;6.47;;
34497;SDS011;20744;50.938;7.286;2023-03-02T02:14:38;12.50;;;6.53;;
34497;SDS011;20744;50.938;7.286;2023-03-02T02:17:07;11.80;;;6.35;;
34497;SDS011;20744;50.938;7.286;2023-03-02T02:19:38;11.65;;;6.68;;
34497;SDS011;20744;50.938;7.286;2023-03-02T02:22:09;11.40;;;6.35;;
34497;SDS011;20744;50.938;7.286;2023-03-02T02:24:37;11.27;;;6.60;;
34497;SDS011;20744;50.938;7.286;2023-03-02T02:27:08;13.27;;;7.10;;
34497;SDS011;20744;50.938;7.286;2023-03-02T02:29:36;14.65;;;7.65;;
34497;SDS011;20744;50.938;7.286;2023-03-02T02:32:11;12.77;;;6.60;;
34497;SDS011;20744;50.938;7.286;2023-03-02T02:34:40;13.52;;;7.40;;
34497;SDS011;20744;50.938;7.286;2023-03-02T02:37:10;23.65;;;10.25;;
34497;SDS011;20744;50.938;7.286;2023-03-02T02:39:40;27.05;;;12.65;;
34497;SDS011;20744;50.938;7.286;2023-03-02T02:42:11;21.50;;;9.93;;
34497;SDS011;20744;50.938;7.286;2023-03-02T02:44:39;16.23;;;9.02;;
34497;SDS011;20744;50.938;7.286;2023-03-02T02:47:09;13.35;;;7.47;;
34497;SDS011;20744;50.938;7.286;2023-03-02T02:49:41;16.63;;;6.40;;
34497;SDS011;20744;50.938;7.286;2023-03-02T02:52:09;12.80;;;6.80;;
34497;SDS011;20744;50.938;7.286;2023-03-02T02:54:38;16.40;;;7.10;;
34497;SDS011;20744;50.938;7.286;2023-03-02T02:57:06;13.35;;;7.47;;
34497;SDS011;20744;50.938;7.286;2023-03-02T02:59:36;13.90;;;7.30;;
34497;SDS011;20744;50.938;7.286;2023-03-02T03:02:04;15.98;;;6.40;;
34497;SDS011;20744;50.938;7.286;2023-03-02T03:04:31;13.15;;;6.30;;
34497;SDS011;20744;50.938;7.286;2023-03-02T03:07:00;12.23;;;6.43;;
34497;SDS011;20744;50.938;7.286;2023-03-02T03:09:27;11.70;;;7.07;;
34497;SDS011;20744;50.938;7.286;2023-03-02T03:11:56;17.88;;;7.65;;
34497;SDS011;20744;50.938;7.286;2023-03-02T03:14:24;14.27;;;7.30;;
34497;SDS011;20744;50.938;7.286;2023-03-02T03:16:54;12.13;;;7.18;;
34497;SDS011;20744;50.938;7.286;2023-03-02T03:19:22;15.80;;;7.50;;
34497;SDS011;20744;50.938;7.286;2023-03-02T03:21:50;13.43;;;6.82;;
34497;SDS011;20744;50.938;7.286;2023-03-02T03:24:18;14.60;;;6.80;;
34497;SDS011;20744;50.938;7.286;2023-03-02T03:26:45;12.13;;;6.65;;
34497;SDS011;20744;50.938;7.286;2023-03-02T03:29:12;16.35;;;7.22;;
34497;SDS011;20744;50.938;7.286;2023-03-02T03:31:39;14.00;;;6.82;;
34497;SDS011;20744;50.938;7.286;2023-03-02T03:34:08;14.15;;;7.45;;
34497;SDS011;20744;50.938;7.286;2023-03-02T03:36:35;15.07;;;7.50;;
34497;SDS011;20744;50.938;7.286;2023-03-02T03:39:04;14.30;;;7.85;;
34497;SDS011;20744;50.938;7.286;2023-03-02T03:41:31;16.45;;;7.45;;
34497;SDS011;20744;50.938;7.286;2023-03-02T03:43:59;15.30;;;7.82;;
34497;SDS011;20744;50.938;7.286;2023-03-02T03:46:26;14.68;;;7.80;;
34497;SDS011;20744;50.938;7.286;2023-03-02T03:48:53;14.00;;;7.35;;
34497;SDS011;20744;50.938;7.286;2023-03-02T03:51:22;16.23;;;7.82;;
34497;SDS011;20744;50.938;7.286;2023-03-02T03:53:50;15.38;;;7.45;;
34497;SDS011;20744;50.938;7.286;2023-03-02T03:56:26;15.25;;;7.68;;
34497;SDS011;20744;50.938;7.286;2023-03-02T03:58:53;15.25;;;7.85;;
34497;SDS011;20744;50.938;7.286;2023-03-02T04:01:30;18.02;;;9.52;;
34497;SDS011;20744;50.938;7.286;2023-03-02T04:03:59;20.45;;;11.55;;
34497;SDS011;20744;50.938;7.286;2023-03-02T04:06:27;16.95;;;8.85;;
34497;SDS011;20744;50.938;7.286;2023-03-02T04:08:55;23.65;;;13.55;;
34497;SDS011;20744;50.938;7.286;2023-03-02T04:11:22;62.13;;;38.97;;
34497;SDS011;20744;50.938;7.286;2023-03-02T04:13:49;35.20;;;24.17;;
34497;SDS011;20744;50.938;7.286;2023-03-02T04:16:16;21.00;;;13.38;;
34497;SDS011;20744;50.938;7.286;2023-03-02T04:18:43;20.60;;;10.25;;
34497;SDS011;20744;50.938;7.286;2023-03-02T04:21:11;15.60;;;8.50;;
34497;SDS011;20744;50.938;7.286;2023-03-02T04:23:39;16.13;;;7.97;;
34497;SDS011;20744;50.938;7.286;2023-03-02T04:26:07;14.50;;;8.38;;
34497;SDS011;20744;50.938;7.286;2023-03-02T04:28:34;15.15;;;8.20;;
34497;SDS011;20744;50.938;7.286;2023-03-02T04:31:01;13.80;;;7.55;;
34497;SDS011;20744;50.938;7.286;2023-03-02T04:33:29;15.77;;;7.55;;
34497;SDS011;20744;50.938;7.286;2023-03-02T04:35:56;11.90;;;6.88;;
34497;SDS011;20744;50.938;7.286;2023-03-02T04:38:23;14.00;;;7.10;;
34497;SDS011;20744;50.938;7.286;2023-03-02T04:40:55;13.45;;;6.65;;
34497;SDS011;20744;50.938;7.286;2023-03-02T04:43:22;20.27;;;7.40;;
34497;SDS011;20744;50.938;7.286;2023-03-02T04:45:50;11.85;;;6.68;;
34497;SDS011;20744;50.938;7.286;2023-03-02T04:48:18;13.45;;;6.50;;
34497;SDS011;20744;50.938;7.286;2023-03-02T04:50:45;12.05;;;6.57;;
34497;SDS011;20744;50.938;7.286;2023-03-02T04:53:12;12.23;;;6.47;;
34497;SDS011;20744;50.938;7.286;2023-03-02T04:55:39;12.95;;;6.28;;
34497;SDS011;20744;50.938;7.286;2023-03-02T04:58:09;11.05;;;6.32;;
34497;SDS011;20744;50.938;7.286;2023-03-02T05:00:36;12.88;;;6.03;;
34497;SDS011;20744;50.938;7.286;2023-03-02T05:03:03;13.90;;;6.78;;
34497;SDS011;20744;50.938;7.286;2023-03-02T05:05:31;12.15;;;6.43;;
34497;SDS011;20744;50.938;7.286;2023-03-02T05:07:59;12.38;;;6.38;;
34497;SDS011;20744;50.938;7.286;2023-03-02T05:10:26;13.05;;;6.63;;
34497;SDS011;20744;50.938;7.286;2023-03-02T05:12:53;12.75;;;6.93;;
34497;SDS011;20744;50.938;7.286;2023-03-02T05:15:27;12.73;;;6.60;;
34497;SDS011;20744;50.938;7.286;2023-03-02T05:17:55;15.07;;;7.13;;
34497;SDS011;20744;50.938;7.286;2023-03-02T05:20:22;15.15;;;6.97;;
34497;SDS011;20744;50.938;7.286;2023-03-02T05:22:54;14.30;;;6.88;;
34497;SDS011;20744;50.938;7.286;2023-03-02T05:25:22;13.65;;;7.43;;
34497;SDS011;20744;50.938;7.286;2023-03-02T05:27:49;13.63;;;6.65;;
34497;SDS011;20744;50.938;7.286;2023-03-02T05:30:18;12.77;;;6.82;;
34497;SDS011;20744;50.938;7.286;2023-03-02T05:32:46;12.93;;;6.65;;
34497;SDS011;20744;50.938;7.286;2023-03-02T05:35:14;12.15;;;7.15;;
34497;SDS011;20744;50.938;7.286;2023-03-02T05:37:41;16.85;;;7.68;;
34497;SDS011;20744;50.938;7.286;2023-03-02T05:40:09;16.70;;;6.70;;
34497;SDS011;20744;50.938;7.286;2023-03-02T05:42:37;16.83;;;6.85;;
34497;SDS011;20744;50.938;7.286;2023-03-02T05:45:05;11.90;;;6.70;;
34497;SDS011;20744;50.938;7.286;2023-03-02T05:47:33;14.25;;;6.75;;
34497;SDS011;20744;50.938;7.286;2023-03-02T05:50:01;13.70;;;7.05;;
34497;SDS011;20744;50.938;7.286;2023-03-02T05:52:29;13.77;;;6.78;;
34497;SDS011;20744;50.938;7.286;2023-03-02T05:54:56;14.13;;;6.68;;
34497;SDS011;20744;50.938;7.286;2023-03-02T05:57:23;17.15;;;7.35;;
34497;SDS011;20744;50.938;7.286;2023-03-02T05:59:50;12.20;;;6.13;;
34497;SDS011;20744;50.938;7.286;2023-03-02T06:02:17;10.27;;;5.90;;
34497;SDS011;20744;50.938;7.286;2023-03-02T06:04:45;13.13;;;6.63;;
34497;SDS011;20744;50.938;7.286;2023-03-02T06:07:13;12.32;;;6.45;;
34497;SDS011;20744;50.938;7.286;2023-03-02T06:09:40;15.30;;;7.50;;
34497;SDS011;20744;50.938;7.286;2023-03-02T06:12:08;13.23;;;7.15;;
34497;SDS011;20744;50.938;7.286;2023-03-02T06:14:35;13.43;;;7.75;;
34497;SDS011;20744;50.938;7.286;2023-03-02T06:17:03;17.30;;;6.97;;
34497;SDS011;20744;50.938;7.286;2023-03-02T06:19:30;15.95;;;7.75;;
34497;SDS011;20744;50.938;7.286;2023-03-02T06:21:57;19.85;;;9.35;;
34497;SDS011;20744;50.938;7.286;2023-03-02T06:24:26;30.92;;;9.57;;
34497;SDS011;20744;50.938;7.286;2023-03-02T06:26:53;17.42;;;8.35;;
34497;SDS011;20744;50.938;7.286;2023-03-02T06:29:21;26.15;;;9.48;;
34497;SDS011;20744;50.938;7.286;2023-03-02T06:31:48;23.25;;;10.75;;
34497;SDS011;20744;50.938;7.286;2023-03-02T06:34:16;34.08;;;12.25;;
34497;SDS011;20744;50.938;7.286;2023-03-02T06:36:43;29.23;;;13.98;;
34497;SDS011;20744;50.938;7.286;2023-03-02T06:39:10;22.65;;;12.50;;
34497;SDS011;20744;50.938;7.286;2023-03-02T06:41:42;18.20;;;8.88;;
34497;SDS011;20744;50.938;7.286;2023-03-02T06:44:10;15.30;;;7.68;;
34497;SDS011;20744;50.938;7.286;2023-03-02T06:46:37;22.08;;;8.00;;
34497;SDS011;20744;50.938;7.286;2023-03-02T06:49:06;19.85;;;9.10;;
34497;SDS011;20744;50.938;7.286;2023-03-02T06:51:34;21.73;;;9.40;;
34497;SDS011;20744;50.938;7.286;2023-03-02T06:54:01;24.52;;;9.73;;
34497;SDS011;20744;50.938;7.286;2023-03-02T06:56:28;22.50;;;10.68;;
34497;SDS011;20744;50.938;7.286;2023-03-02T06:58:57;25.45;;;11.20;;
34497;SDS011;20744;50.938;7.286;2023-03-02T07:01:24;33.22;;;12.05;;
34497;SDS011;20744;50.938;7.286;2023-03-02T07:03:53;19.35;;;8.88;;
34497;SDS011;20744;50.938;7.286;2023-03-02T07:06:20;18.88;;;8.18;;
34497;SDS011;20744;50.938;7.286;2023-03-02T07:08:48;15.95;;;7.97;;
34497;SDS011;20744;50.938;7.286;2023-03-02T07:11:15;12.70;;;7.30;;
34497;SDS011;20744;50.938;7.286;2023-03-02T07:13:42;23.63;;;7.85;;
34497;SDS011;20744;50.938;7.286;2023-03-02T07:16:11;15.50;;;7.60;;
34497;SDS011;20744;50.938;7.286;2023-03-02T07:18:39;19.63;;;8.02;;
34497;SDS011;20744;50.938;7.286;2023-03-02T07:21:06;20.08;;;8.77;;
34497;SDS011;20744;50.938;7.286;2023-03-02T07:23:33;24.08;;;9.00;;
34497;SDS011;20744;50.938;7.286;2023-03-02T07:26:01;20.83;;;8.43;;
34497;SDS011;20744;50.938;7.286;2023-03-02T07:28:32;20.90;;;7.75;;
34497;SDS011;20744;50.938;7.286;2023-03-02T07:30:59;19.13;;;8.60;;
34497;SDS011;20744;50.938;7.286;2023-03-02T07:33:28;17.20;;;8.63;;
34497;SDS011;20744;50.938;7.286;2023-03-02T07:35:55;16.38;;;7.70;;
34497;SDS011;20744;50.938;7.286;2023-03-02T07:38:22;16.05;;;8.00;;
34497;SDS011;20744;50.938;7.286;2023-03-02T07:40:50;17.48;;;7.57;;
34497;SDS011;20744;50.938;7.286;2023-03-02T07:43:17;26.75;;;7.90;;
34497;SDS011;20744;50.938;7.286;2023-03-02T07:45:44;21.73;;;7.60;;
34497;SDS011;20744;50.938;7.286;2023-03-02T07:48:12;23.55;;;7.82;;
34497;SDS011;20744;50.938;7.286;2023-03-02T07:50:40;19.77;;;7.65;;
34497;SDS011;20744;50.938;7.286;2023-03-02T07:53:07;15.43;;;7.30;;
34497;SDS011;20744;50.938;7.286;2023-03-02T07:55:38;26.33;;;7.47;;
34497;SDS011;20744;50.938;7.286;2023-03-02T07:58:06;16.75;;;7.80;;
34497;SDS011;20744;50.938;7.286;2023-03-02T08:00:33;21.35;;;9.00;;
34497;SDS011;20744;50.938;7.286;2023-03-02T08:03:01;21.40;;;8.88;;
34497;SDS011;20744;50.938;7.286;2023-03-02T08:05:29;25.65;;;8.27;;
34497;SDS011;20744;50.938;7.286;2023-03-02T08:07:57;16.67;;;8.40;;
34497;SDS011;20744;50.938;7.286;2023-03-02T08:10:25;23.17;;;8.73;;
34497;SDS011;20744;50.938;7.286;2023-03-02T08:12:52;17.63;;;8.35;;
34497;SDS011;20744;50.938;7.286;2023-03-02T08:15:19;18.00;;;8.73;;
34497;SDS011;20744;50.938;7.286;2023-03-02T08:17:47;32.13;;;8.48;;
34497;SDS011;20744;50.938;7.286;2023-03-02T08:20:14;24.05;;;8.07;;
34497;SDS011;20744;50.938;7.286;2023-03-02T08:22:41;15.77;;;7.88;;
34497;SDS011;20744;50.938;7.286;2023-03-02T08:25:10;22.40;;;8.18;;
34497;SDS011;20744;50.938;7.286;2023-03-02T08:27:37;14.27;;;7.18;;
34497;SDS011;20744;50.938;7.286;2023-03-02T08:30:05;15.30;;;7.97;;
34497;SDS011;20744;50.938;7.286;2023-03-02T08:32:33;21.67;;;7.72;;
34497;SDS011;20744;50.938;7.286;2023-03-02T08:35:00;12.10;;;6.85;;
34497;SDS011;20744;50.938;7.286;2023-03-02T08:37:28;14.52;;;6.78;;
34497;SDS011;20744;50.938;7.286;2023-03-02T08:39:55;16.67;;;6.88;;
34497;SDS011;20744;50.938;7.286;2023-03-02T08:42:24;15.95;;;6.90;;
34497;SDS011;20744;50.938;7.286;2023-03-02T08:44:51;14.60;;;6.93;;
34497;SDS011;20744;50.938;7.286;2023-03-02T08:47:18;24.05;;;7.72;;
34497;SDS011;20744;50.938;7.286;2023-03-02T08:49:45;18.02;;;7.85;;
34497;SDS011;20744;50.938;7.286;2023-03-02T08:52:13;17.15;;;7.95;;
34497;SDS011;20744;50.938;7.286;2023-03-02T08:54:41;16.70;;;7.55;;
34497;SDS011;20744;50.938;7.286;2023-03-02T08:57:09;17.73;;;7.30;;
34497;SDS011;20744;50.938;7.286;2023-03-02T08:59:37;15.15;;;7.85;;
34497;SDS011;20744;50.938;7.286;2023-03-02T09:02:05;18.17;;;7.30;;
34497;SDS011;20744;50.938;7.286;2023-03-02T09:04:33;30.30;;;8.23;;
34497;SDS011;20744;50.938;7.286;2023-03-02T09:07:00;20.63;;;8.18;;
34497;SDS011;20744;50.938;7.286;2023-03-02T09:09:28;15.82;;;7.88;;
34497;SDS011;20744;50.938;7.286;2023-03-02T09:11:55;20.75;;;7.53;;
34497;SDS011;20744;50.938;7.286;2023-03-02T09:14:22;18.95;;;8.02;;
34497;SDS011;20744;50.938;7.286;2023-03-02T09:16:51;16.90;;;7.60;;
34497;SDS011;20744;50.938;7.286;2023-03-02T09:19:18;22.45;;;7.55;;
34497;SDS011;20744;50.938;7.286;2023-03-02T09:21:46;14.40;;;6.78;;
34497;SDS011;20744;50.938;7.286;2023-03-02T09:24:13;14.13;;;7.25;;
34497;SDS011;20744;50.938;7.286;2023-03-02T09:26:41;16.38;;;6.82;;
34497;SDS011;20744;50.938;7.286;2023-03-02T09:29:08;13.25;;;7.00;;
34497;SDS011;20744;50.938;7.286;2023-03-02T09:31:35;11.75;;;6.63;;
34497;SDS011;20744;50.938;7.286;2023-03-02T09:34:04;10.82;;;6.60;;
34497;SDS011;20744;50.938;7.286;2023-03-02T09:36:31;10.40;;;6.22;;
34497;SDS011;20744;50.938;7.286;2023-03-02T09:38:59;14.18;;;6.60;;
34497;SDS011;20744;50.938;7.286;2023-03-02T09:41:48;17.10;;;7.32;;
34497;SDS011;20744;50.938;7.286;2023-03-02T09:44:34;12.93;;;6.45;;
34497;SDS011;20744;50.938;7.286;2023-03-02T09:47:07;11.38;;;6.78;;
34497;SDS011;20744;50.938;7.286;2023-03-02T09:49:48;13.57;;;6.88;;
34497;SDS011;20744;50.938;7.286;2023-03-02T09:52:21;12.38;;;7.13;;
34497;SDS011;20744;50.938;7.286;2023-03-02T09:54:53;15.35;;;7.63;;
34497;SDS011;20744;50.938;7.286;2023-03-02T09:57:21;11.52;;;6.75;;
34497;SDS011;20744;50.938;7.286;2023-03-02T09:59:50;11.32;;;6.68;;
34497;SDS011;20744;50.938;7.286;2023-03-02T10:02:22;11.48;;;6.53;;
34497;SDS011;20744;50.938;7.286;2023-03-02T10:04:53;10.75;;;6.20;;
34497;SDS011;20744;50.938;7.286;2023-03-02T10:07:21;12.52;;;6.38;;
34497;SDS011;20744;50.938;7.286;2023-03-02T10:09:51;11.35;;;5.72;;
34497;SDS011;20744;50.938;7.286;2023-03-02T10:12:23;9.48;;;5.88;;
34497;SDS011;20744;50.938;7.286;2023-03-02T10:14:56;11.55;;;6.53;;
34497;SDS011;20744;50.938;7.286;2023-03-02T10:17:30;9.73;;;6.25;;
34497;SDS011;20744;50.938;7.286;2023-03-02T10:20:04;11.07;;;6.05;;
34497;SDS011;20744;50.938;7.286;2023-03-02T10:22:35;9.18;;;5.68;;
34497;SDS011;20744;50.938;7.286;2023-03-02T10:25:07;8.73;;;5.47;;
34497;SDS011;20744;50.938;7.286;2023-03-02T10:27:39;11.77;;;6.32;;
34497;SDS011;20744;50.938;7.286;2023-03-02T10:30:13;12.52;;;6.32;;
34497;SDS011;20744;50.938;7.286;2023-03-02T10:32:42;12.85;;;6.28;;
34497;SDS011;20744;50.938;7.286;2023-03-02T10:35:12;10.10;;;5.70;;
34497;SDS011;20744;50.938;7.286;2023-03-02T10:37:40;8.80;;;5.90;;
34497;SDS011;20744;50.938;7.286;2023-03-02T10:40:09;10.43;;;5.70;;
34497;SDS011;20744;50.938;7.286;2023-03-02T10:42:37;11.02;;;5.90;;
34497;SDS011;20744;50.938;7.286;2023-03-02T10:45:10;9.80;;;5.78;;
34497;SDS011;20744;50.938;7.286;2023-03-02T10:47:43;11.30;;;5.82;;
34497;SDS011;20744;50.938;7.286;2023-03-02T10:50:19;10.35;;;5.07;;
34497;SDS011;20744;50.938;7.286;2023-03-02T10:52:47;9.65;;;4.70;;
34497;SDS011;20744;50.938;7.286;2023-03-02T10:55:16;10.60;;;4.97;;
34497;SDS011;20744;50.938;7.286;2023-03-02T10:57:43;7.28;;;3.80;;
34497;SDS011;20744;50.938;7.286;2023-03-02T11:00:15;10.38;;;3.50;;
34497;SDS011;20744;50.938;7.286;2023-03-02T11:02:52;11.25;;;3.65;;
34497;SDS011;20744;50.938;7.286;2023-03-02T11:05:22;6.70;;;3.20;;
34497;SDS011;20744;50.938;7.286;2023-03-02T11:07:52;7.03;;;3.30;;
34497;SDS011;20744;50.938;7.286;2023-03-02T11:10:21;7.05;;;3.47;;
34497;SDS011;20744;50.938;7.286;2023-03-02T11:12:49;11.57;;;3.75;;
34497;SDS011;20744;50.938;7.286;2023-03-02T11:15:21;6.38;;;3.47;;
34497;SDS011;20744;50.938;7.286;2023-03-02T11:17:49;6.57;;;3.22;;
34497;SDS011;20744;50.938;7.286;2023-03-02T11:20:22;7.78;;;3.20;;
34497;SDS011;20744;50.938;7.286;2023-03-02T11:22:52;9.43;;;3.40;;
34497;SDS011;20744;50.938;7.286;2023-03-02T11:25:23;8.07;;;3.38;;
34497;SDS011;20744;50.938;7.286;2023-03-02T11:27:53;9.77;;;3.53;;
34497;SDS011;20744;50.938;7.286;2023-03-02T11:30:22;10.38;;;4.43;;
34497;SDS011;20744;50.938;7.286;2023-03-02T11:32:52;8.55;;;4.28;;
34497;SDS011;20744;50.938;7.286;2023-03-02T11:35:23;8.93;;;4.10;;
34497;SDS011;20744;50.938;7.286;2023-03-02T11:37:55;8.30;;;3.80;;
34497;SDS011;20744;50.938;7.286;2023-03-02T11:40:27;8.38;;;3.85;;
34497;SDS011;20744;50.938;7.286;2023-03-02T11:42:57;6.45;;;4.13;;
34497;SDS011;20744;50.938;7.286;2023-03-02T11:45:26;7.53;;;3.58;;
34497;SDS011;20744;50.938;7.286;2023-03-02T11:47:55;9.18;;;4.00;;
34497;SDS011;20744;50.938;7.286;2023-03-02T11:50:24;6.45;;;3.90;;
34497;SDS011;20744;50.938;7.286;2023-03-02T11:52:53;9.25;;;4.30;;
34497;SDS011;20744;50.938;7.286;2023-03-02T11:55:23;8.02;;;3.60;;
34497;SDS011;20744;50.938;7.286;2023-03-02T11:57:52;8.07;;;4.10;;
34497;SDS011;20744;50.938;7.286;2023-03-02T12:00:26;7.95;;;4.47;;
34497;SDS011;20744;50.938;7.286;2023-03-02T12:03:01;7.07;;;3.53;;
34497;SDS011;20744;50.938;7.286;2023-03-02T12:05:31;12.88;;;3.33;;
34497;SDS011;20744;50.938;7.286;2023-03-02T12:08:01;13.07;;;3.30;;
34497;SDS011;20744;50.938;7.286;2023-03-02T12:10:31;6.57;;;3.38;;
34497;SDS011;20744;50.938;7.286;2023-03-02T12:12:59;7.40;;;3.53;;
34497;SDS011;20744;50.938;7.286;2023-03-02T12:15:36;6.18;;;2.92;;
34497;SDS011;20744;50.938;7.286;2023-03-02T12:18:13;6.93;;;3.30;;
34497;SDS011;20744;50.938;7.286;2023-03-02T12:20:42;10.93;;;3.50;;
34497;SDS011;20744;50.938;7.286;2023-03-02T12:23:20;7.35;;;3.63;;
34497;SDS011;20744;50.938;7.286;2023-03-02T12:25:47;10.73;;;3.50;;
34497;SDS011;20744;50.938;7.286;2023-03-02T12:28:27;8.48;;;2.95;;
34497;SDS011;20744;50.938;7.286;2023-03-02T12:30:55;9.48;;;3.08;;
34497;SDS011;20744;50.938;7.286;2023-03-02T12:33:22;9.35;;;2.97;;
34497;SDS011;20744;50.938;7.286;2023-03-02T12:35:59;6.35;;;2.67;;
34497;SDS011;20744;50.938;7.286;2023-03-02T12:38:29;6.43;;;2.60;;
34497;SDS011;20744;50.938;7.286;2023-03-02T12:41:02;7.38;;;2.20;;
34497;SDS011;20744;50.938;7.286;2023-03-02T12:43:34;9.43;;;2.10;;
34497;SDS011;20744;50.938;7.286;2023-03-02T12:46:07;8.10;;;2.40;;
34497;SDS011;20744;50.938;7.286;2023-03-02T12:48:43;7.05;;;2.80;;
34497;SDS011;20744;50.938;7.286;2023-03-02T12:51:13;7.60;;;2.78;;
34497;SDS011;20744;50.938;7.286;2023-03-02T12:53:42;6.22;;;2.17;;
34497;SDS011;20744;50.938;7.286;2023-03-02T12:56:19;6.60;;;2.50;;
34497;SDS011;20744;50.938;7.286;2023-03-02T12:58:47;5.53;;;2.15;;
34497;SDS011;20744;50.938;7.286;2023-03-02T13:01:18;8.30;;;2.38;;
34497;SDS011;20744;50.938;7.286;2023-03-02T13:03:46;7.72;;;2.05;;
34497;SDS011;20744;50.938;7.286;2023-03-02T13:06:16;11.70;;;2.40;;
34497;SDS011;20744;50.938;7.286;2023-03-02T13:08:44;5.57;;;2.00;;
34497;SDS011;20744;50.938;7.286;2023-03-02T13:11:12;5.65;;;1.80;;
34497;SDS011;20744;50.938;7.286;2023-03-02T13:13:40;6.13;;;1.85;;
34497;SDS011;20744;50.938;7.286;2023-03-02T13:16:17;6.00;;;1.98;;
34497;SDS011;20744;50.938;7.286;2023-03-02T13:18:45;9.90;;;2.05;;
34497;SDS011;20744;50.938;7.286;2023-03-02T13:21:15;6.47;;;1.90;;
34497;SDS011;20744;50.938;7.286;2023-03-02T13:23:45;6.57;;;2.08;;
34497;SDS011;20744;50.938;7.286;2023-03-02T13:26:23;8.20;;;1.65;;
34497;SDS011;20744;50.938;7.286;2023-03-02T13:28:58;8.15;;;2.15;;
34497;SDS011;20744;50.938;7.286;2023-03-02T13:31:26;4.90;;;1.88;;
34497;SDS011;20744;50.938;7.286;2023-03-02T13:33:54;7.00;;;1.95;;
34497;SDS011;20744;50.938;7.286;2023-03-02T13:36:24;6.45;;;1.90;;
34497;SDS011;20744;50.938;7.286;2023-03-02T13:38:52;7.60;;;2.05;;
34497;SDS011;20744;50.938;7.286;2023-03-02T13:41:20;5.13;;;1.70;;
34497;SDS011;20744;50.938;7.286;2023-03-02T13:43:48;7.35;;;1.80;;
34497;SDS011;20744;50.938;7.286;2023-03-02T13:46:25;7.03;;;1.98;;
34497;SDS011;20744;50.938;7.286;2023-03-02T13:48:54;6.72;;;1.70;;
34497;SDS011;20744;50.938;7.286;2023-03-02T13:51:21;5.25;;;1.88;;
34497;SDS011;20744;50.938;7.286;2023-03-02T13:53:52;4.72;;;1.63;;
34497;SDS011;20744;50.938;7.286;2023-03-02T13:56:21;5.53;;;2.10;;
34497;SDS011;20744;50.938;7.286;2023-03-02T13:58:49;8.73;;;2.85;;
34497;SDS011;20744;50.938;7.286;2023-03-02T14:01:16;7.88;;;3.42;;
34497;SDS011;20744;50.938;7.286;2023-03-02T14:03:44;7.90;;;3.83;;
34497;SDS011;20744;50.938;7.286;2023-03-02T14:06:11;6.07;;;4.05;;
34497;SDS011;20744;50.938;7.286;2023-03-02T14:08:38;8.57;;;4.15;;
34497;SDS011;20744;50.938;7.286;2023-03-02T14:11:09;9.70;;;4.28;;
34497;SDS011;20744;50.938;7.286;2023-03-02T14:13:38;7.03;;;3.90;;
34497;SDS011;20744;50.938;7.286;2023-03-02T14:16:08;11.52;;;3.53;;
34497;SDS011;20744;50.938;7.286;2023-03-02T14:18:37;5.53;;;3.40;;
34497;SDS011;20744;50.938;7.286;2023-03-02T14:21:05;8.65;;;3.42;;
34497;SDS011;20744;50.938;7.286;2023-03-02T14:23:36;7.15;;;4.00;;
34497;SDS011;20744;50.938;7.286;2023-03-02T14:26:08;10.65;;;4.18;;
34497;SDS011;20744;50.938;7.286;2023-03-02T14:28:39;9.20;;;4.10;;
34497;SDS011;20744;50.938;7.286;2023-03-02T14:31:07;10.13;;;3.78;;
34497;SDS011;20744;50.938;7.286;2023-03-02T14:33:35;8.32;;;4.43;;
34497;SDS011;20744;50.938;7.286;2023-03-02T14:36:02;12.07;;;4.22;;
34497;SDS011;20744;50.938;7.286;2023-03-02T14:38:30;7.93;;;4.55;;
34497;SDS011;20744;50.938;7.286;2023-03-02T14:40:58;6.22;;;4.00;;
34497;SDS011;20744;50.938;7.286;2023-03-02T14:43:26;8.75;;;4.50;;
34497;SDS011;20744;50.938;7.286;2023-03-02T14:45:54;6.85;;;4.28;;
34497;SDS011;20744;50.938;7.286;2023-03-02T14:48:22;8.35;;;4.20;;